Susan Ann — WCY5700 — position and weather

sailwx.info

Track history (hours):
 
Tides and Currents Weather Stations Pressure Air Temp Water Temp Dewpoint Dewpoint Depression Visibility Wind Speed Wind Dir Waves Ship Positions

Susan Ann

Owner: CROSS SOUND FERRY SERVICES INC, NEW LONDON, CT. More information available from US FCC via Universal Licensing System and Coast Guard Vessel Documentation Center.

Last reported at 2015-Apr-19 00:19 UTC. Time now 2015-Apr-19 04:36 UTC.
Position N 41°09' W 072°14'.

Length 72 m; draft 4 m.

Type: Passenger vessel. MMSI: 367354350.

Date/timePositionNaut miles runAvg speedWind from/ knotsBaromVisibWave heightAir tempDewpointWater temp
2015-Apr-19 00:19N 41°09' W 072°14'810.6
2015-Apr-18 23:33N 41°16' W 072°08'6 6.0
2015-Apr-18 22:34N 41°21' W 072°06'10 9.5
2015-Apr-18 21:33N 41°13' W 072°11'4 4.4
2015-Apr-18 20:33N 41°09' W 072°14'8 8.4
2015-Apr-18 19:33N 41°16' W 072°08'6 5.6
2015-Apr-18 18:33N 41°21' W 072°06'8 8.4
2015-Apr-18 17:34N 41°14' W 072°10'6 5.6
2015-Apr-18 16:33N 41°09' W 072°14'9 9.2
2015-Apr-18 15:33N 41°16' W 072°07'5 5.0
2015-Apr-18 14:33N 41°21' W 072°06'9 9.2
2015-Apr-18 13:34N 41°13' W 072°11'5 4.7
2015-Apr-18 12:33N 41°09' W 072°14'8 8.1
2015-Apr-18 11:33N 41°16' W 072°08'6 5.9
2015-Apr-18 10:34N 41°21' W 072°06'1 0.1
2015-Apr-18 00:15N 41°21' W 072°05'811.9
2015-Apr-17 23:33N 41°13' W 072°10'5 5.1
2015-Apr-17 22:33N 41°09' W 072°14'9 8.7
2015-Apr-17 21:34N 41°16' W 072°07'6 5.5
2015-Apr-17 20:33N 41°21' W 072°06'9 8.9
2015-Apr-17 19:33N 41°13' W 072°10'5 5.0
2015-Apr-17 18:34N 41°09' W 072°14'8 8.0
2015-Apr-17 17:33N 41°15' W 072°08'6 6.1
2015-Apr-17 16:33N 41°21' W 072°06'1010.0
2015-Apr-17 15:33N 41°12' W 072°11'4 3.9
2015-Apr-17 14:33N 41°09' W 072°14'8 8.2
2015-Apr-17 13:34N 41°16' W 072°08'6 5.9
2015-Apr-17 12:33N 41°21' W 072°06'9 8.6
2015-Apr-17 11:33N 41°13' W 072°10'5 5.4
2015-Apr-17 10:33N 41°09' W 072°14'0 0.0
2015-Apr-17 00:09N 41°09' W 072°14'813.2
2015-Apr-16 23:33N 41°16' W 072°09'6 6.0
2015-Apr-16 22:34N 41°21' W 072°06'9 9.1
2015-Apr-16 21:34N 41°13' W 072°10'5 4.9
2015-Apr-16 20:34N 41°09' W 072°14'9 8.6
2015-Apr-16 19:34N 41°16' W 072°07'6 5.5
2015-Apr-16 18:34N 41°21' W 072°06'9 9.3
2015-Apr-16 17:33N 41°13' W 072°11'5 4.6
2015-Apr-16 16:33N 41°09' W 072°14'9 8.6
2015-Apr-16 15:33N 41°16' W 072°07'6 5.5
2015-Apr-16 14:33N 41°21' W 072°06'8 8.3
2015-Apr-16 13:33N 41°14' W 072°10'6 5.6
2015-Apr-16 12:33N 41°09' W 072°14'8 8.3
2015-Apr-16 11:34N 41°16' W 072°08'6 5.8
2015-Apr-16 10:33N 41°21' W 072°06'1 0.1
2015-Apr-16 00:12N 41°20' W 072°05'812.1
2015-Apr-15 23:33N 41°14' W 072°10'6 5.5
2015-Apr-15 22:33N 41°09' W 072°14'8 8.5
2015-Apr-15 21:34N 41°16' W 072°08'6 5.6
2015-Apr-15 20:33N 41°21' W 072°06'9 9.0
2015-Apr-15 19:33N 41°13' W 072°10'5 4.9
2015-Apr-15 18:33N 41°09' W 072°14'10 9.7
2015-Apr-15 17:33N 41°17' W 072°06'5 4.6
2015-Apr-15 16:33N 41°21' W 072°06'9 8.6
2015-Apr-15 15:33N 41°13' W 072°10'5 5.5
2015-Apr-15 14:33N 41°09' W 072°14'8 7.7
2015-Apr-15 13:33N 41°15' W 072°08'6 6.4
2015-Apr-15 12:33N 41°21' W 072°06'9 8.6
2015-Apr-15 11:33N 41°13' W 072°10'5 5.4
2015-Apr-15 10:33N 41°09' W 072°14'0 0.0
2015-Apr-15 00:29N 41°09' W 072°14'8 8.5
2015-Apr-14 23:34N 41°15' W 072°08'6 6.2
2015-Apr-14 22:33N 41°21' W 072°06'9 8.8
2015-Apr-14 21:34N 41°13' W 072°10'5 5.2
2015-Apr-14 20:33N 41°09' W 072°14'7 7.4
2015-Apr-14 19:33N 41°15' W 072°09'7 6.6
2015-Apr-14 18:33N 41°21' W 072°06'8 8.5
2015-Apr-14 17:34N 41°13' W 072°09'6 5.6
2015-Apr-14 16:33N 41°09' W 072°14'9 8.6
2015-Apr-14 15:33N 41°16' W 072°07'6 5.6
2015-Apr-14 14:34N 41°21' W 072°06'9 8.6
2015-Apr-14 13:33N 41°13' W 072°09'5 5.5
2015-Apr-14 12:33N 41°09' W 072°14'9 9.0
2015-Apr-14 11:34N 41°16' W 072°07'5 5.1
2015-Apr-14 10:34N 41°21' W 072°06'0 0.0
2015-Apr-14 00:20N 41°21' W 072°06'810.2
2015-Apr-13 23:34N 41°14' W 072°09'6 6.1
2015-Apr-13 22:34N 41°09' W 072°14'8 8.1
2015-Apr-13 21:33N 41°16' W 072°08'6 5.9
2015-Apr-13 20:33N 41°21' W 072°06'9 9.1
2015-Apr-13 19:33N 41°13' W 072°11'5 4.8
2015-Apr-13 18:33N 41°09' W 072°14'8 8.1
2015-Apr-13 17:33N 41°16' W 072°08'6 5.9
2015-Apr-13 16:34N 41°21' W 072°06'9 8.8
2015-Apr-13 15:33N 41°13' W 072°10'5 5.2
2015-Apr-13 14:33N 41°09' W 072°14'8 8.3
2015-Apr-13 13:33N 41°16' W 072°08'6 5.8
2015-Apr-13 12:33N 41°21' W 072°06'8 7.9
2015-Apr-13 11:34N 41°14' W 072°09'6 6.1
2015-Apr-13 10:34N 41°09' W 072°14'0 0.0
2015-Apr-13 01:33N 41°09' W 072°14'8 8.0
2015-Apr-13 00:33N 41°15' W 072°08'6 6.1
2015-Apr-12 23:33N 41°21' W 072°06'8 8.4
2015-Apr-12 22:33N 41°14' W 072°10'6 5.6
2015-Apr-12 21:33N 41°09' W 072°14'8 7.8
2015-Apr-12 20:33N 41°15' W 072°08'6 6.2
2015-Apr-12 19:33N 41°21' W 072°06'9 8.6
2015-Apr-12 18:33N 41°13' W 072°10'5 5.5
2015-Apr-12 17:33N 41°09' W 072°14'9 8.8
2015-Apr-12 16:34N 41°16' W 072°07'5 5.3
2015-Apr-12 15:33N 41°21' W 072°06'9 8.6
2015-Apr-12 14:33N 41°13' W 072°09'6 5.5
2015-Apr-12 13:33N 41°09' W 072°14'8 8.4
2015-Apr-12 12:34N 41°16' W 072°07'6 5.7
2015-Apr-12 11:34N 41°21' W 072°06'1 0.1
2015-Apr-12 00:09N 41°21' W 072°05'812.7
2015-Apr-11 23:33N 41°14' W 072°09'6 5.9
2015-Apr-11 22:33N 41°09' W 072°14'9 9.4
2015-Apr-11 21:33N 41°16' W 072°06'5 4.9
2015-Apr-11 20:34N 41°21' W 072°05'1010.4
2015-Apr-11 19:34N 41°12' W 072°12'3 3.5
2015-Apr-11 18:33N 41°09' W 072°14'8 8.3
2015-Apr-11 17:34N 41°16' W 072°08'6 5.7
2015-Apr-11 16:33N 41°21' W 072°06'8 8.3
2015-Apr-11 15:33N 41°14' W 072°09'6 5.8
2015-Apr-11 14:33N 41°09' W 072°14'8 8.0
2015-Apr-11 13:33N 41°16' W 072°08'6 6.1
2015-Apr-11 12:33N 41°21' W 072°06'9 9.3
2015-Apr-11 11:33N 41°13' W 072°11'5 4.6
2015-Apr-11 10:33N 41°09' W 072°14'0 0.0
2015-Apr-11 00:34N 41°09' W 072°14'9 9.4
2015-Apr-10 23:33N 41°17' W 072°06'5 4.9
2015-Apr-10 22:34N 41°21' W 072°06'9 9.2
2015-Apr-10 21:33N 41°13' W 072°10'5 4.7
2015-Apr-10 20:34N 41°09' W 072°14'9 9.4
2015-Apr-10 19:33N 41°17' W 072°06'5 4.8
2015-Apr-10 18:33N 41°21' W 072°06'8 8.4
2015-Apr-10 17:33N 41°14' W 072°10'5 5.5
2015-Apr-10 16:33N 41°09' W 072°14'8 8.4
2015-Apr-10 15:33N 41°16' W 072°08'8 2.8
2015-Apr-10 12:33N 41°09' W 072°14'8 8.0
2015-Apr-10 11:33N 41°15' W 072°08'6 0.5
2015-Apr-10 00:09N 41°21' W 072°05'812.6
2015-Apr-09 23:34N 41°14' W 072°09'6 6.0
2015-Apr-09 22:33N 41°09' W 072°14'8 8.3
2015-Apr-09 21:33N 41°16' W 072°08'6 5.8
2015-Apr-09 20:34N 41°21' W 072°06'10 9.7
2015-Apr-09 19:34N 41°13' W 072°11'4 4.1
2015-Apr-09 18:34N 41°09' W 072°14'8 8.1
2015-Apr-09 17:33N 41°16' W 072°08'6 5.9
2015-Apr-09 16:33N 41°21' W 072°06'9 8.9
2015-Apr-09 15:33N 41°13' W 072°10'5 5.0
2015-Apr-09 14:33N 41°09' W 072°14'8 7.6
2015-Apr-09 13:33N 41°15' W 072°08'6 6.4
2015-Apr-09 12:33N 41°21' W 072°06'8 7.8
2015-Apr-09 11:33N 41°14' W 072°09'6 6.3
2015-Apr-09 10:33N 41°09' W 072°14'0 0.0
2015-Apr-09 00:34N 41°09' W 072°14'  
Track history (hours):
 
Tides and Currents Weather Stations Pressure Air Temp Water Temp Dewpoint Dewpoint Depression Visibility Wind Speed Wind Dir Waves Ship Positions

Susan Ann

Owner: CROSS SOUND FERRY SERVICES INC, NEW LONDON, CT. More information available from US FCC via Universal Licensing System and Coast Guard Vessel Documentation Center.

Last reported at 2015-Apr-19 00:19 UTC. Time now 2015-Apr-19 04:36 UTC.
Position N 41°09' W 072°14'.

Length 72 m; draft 4 m.

Type: Passenger vessel. MMSI: 367354350.

Date/timePositionNaut miles runAvg speedWind from/ knotsBaromVisibWave heightAir tempDewpointWater temp
2015-Apr-19 00:19N 41°09' W 072°14'810.6
2015-Apr-18 23:33N 41°16' W 072°08'6 6.0
2015-Apr-18 22:34N 41°21' W 072°06'10 9.5
2015-Apr-18 21:33N 41°13' W 072°11'4 4.4
2015-Apr-18 20:33N 41°09' W 072°14'8 8.4
2015-Apr-18 19:33N 41°16' W 072°08'6 5.6
2015-Apr-18 18:33N 41°21' W 072°06'8 8.4
2015-Apr-18 17:34N 41°14' W 072°10'6 5.6
2015-Apr-18 16:33N 41°09' W 072°14'9 9.2
2015-Apr-18 15:33N 41°16' W 072°07'5 5.0
2015-Apr-18 14:33N 41°21' W 072°06'9 9.2
2015-Apr-18 13:34N 41°13' W 072°11'5 4.7
2015-Apr-18 12:33N 41°09' W 072°14'8 8.1
2015-Apr-18 11:33N 41°16' W 072°08'6 5.9
2015-Apr-18 10:34N 41°21' W 072°06'1 0.1
2015-Apr-18 00:15N 41°21' W 072°05'811.9
2015-Apr-17 23:33N 41°13' W 072°10'5 5.1
2015-Apr-17 22:33N 41°09' W 072°14'9 8.7
2015-Apr-17 21:34N 41°16' W 072°07'6 5.5
2015-Apr-17 20:33N 41°21' W 072°06'9 8.9
2015-Apr-17 19:33N 41°13' W 072°10'5 5.0
2015-Apr-17 18:34N 41°09' W 072°14'8 8.0
2015-Apr-17 17:33N 41°15' W 072°08'6 6.1
2015-Apr-17 16:33N 41°21' W 072°06'1010.0
2015-Apr-17 15:33N 41°12' W 072°11'4 3.9
2015-Apr-17 14:33N 41°09' W 072°14'8 8.2
2015-Apr-17 13:34N 41°16' W 072°08'6 5.9
2015-Apr-17 12:33N 41°21' W 072°06'9 8.6
2015-Apr-17 11:33N 41°13' W 072°10'5 5.4
2015-Apr-17 10:33N 41°09' W 072°14'0 0.0
2015-Apr-17 00:09N 41°09' W 072°14'813.2
2015-Apr-16 23:33N 41°16' W 072°09'6 6.0
2015-Apr-16 22:34N 41°21' W 072°06'9 9.1
2015-Apr-16 21:34N 41°13' W 072°10'5 4.9
2015-Apr-16 20:34N 41°09' W 072°14'9 8.6
2015-Apr-16 19:34N 41°16' W 072°07'6 5.5
2015-Apr-16 18:34N 41°21' W 072°06'9 9.3
2015-Apr-16 17:33N 41°13' W 072°11'5 4.6
2015-Apr-16 16:33N 41°09' W 072°14'9 8.6
2015-Apr-16 15:33N 41°16' W 072°07'6 5.5
2015-Apr-16 14:33N 41°21' W 072°06'8 8.3
2015-Apr-16 13:33N 41°14' W 072°10'6 5.6
2015-Apr-16 12:33N 41°09' W 072°14'8 8.3
2015-Apr-16 11:34N 41°16' W 072°08'6 5.8
2015-Apr-16 10:33N 41°21' W 072°06'1 0.1
2015-Apr-16 00:12N 41°20' W 072°05'812.1
2015-Apr-15 23:33N 41°14' W 072°10'6 5.5
2015-Apr-15 22:33N 41°09' W 072°14'8 8.5
2015-Apr-15 21:34N 41°16' W 072°08'6 5.6
2015-Apr-15 20:33N 41°21' W 072°06'9 9.0
2015-Apr-15 19:33N 41°13' W 072°10'5 4.9
2015-Apr-15 18:33N 41°09' W 072°14'10 9.7
2015-Apr-15 17:33N 41°17' W 072°06'5 4.6
2015-Apr-15 16:33N 41°21' W 072°06'9 8.6
2015-Apr-15 15:33N 41°13' W 072°10'5 5.5
2015-Apr-15 14:33N 41°09' W 072°14'8 7.7
2015-Apr-15 13:33N 41°15' W 072°08'6 6.4
2015-Apr-15 12:33N 41°21' W 072°06'9 8.6
2015-Apr-15 11:33N 41°13' W 072°10'5 5.4
2015-Apr-15 10:33N 41°09' W 072°14'0 0.0
2015-Apr-15 00:29N 41°09' W 072°14'8 8.5
2015-Apr-14 23:34N 41°15' W 072°08'6 6.2
2015-Apr-14 22:33N 41°21' W 072°06'9 8.8
2015-Apr-14 21:34N 41°13' W 072°10'5 5.2
2015-Apr-14 20:33N 41°09' W 072°14'7 7.4
2015-Apr-14 19:33N 41°15' W 072°09'7 6.6
2015-Apr-14 18:33N 41°21' W 072°06'8 8.5
2015-Apr-14 17:34N 41°13' W 072°09'6 5.6
2015-Apr-14 16:33N 41°09' W 072°14'9 8.6
2015-Apr-14 15:33N 41°16' W 072°07'6 5.6
2015-Apr-14 14:34N 41°21' W 072°06'9 8.6
2015-Apr-14 13:33N 41°13' W 072°09'5 5.5
2015-Apr-14 12:33N 41°09' W 072°14'9 9.0
2015-Apr-14 11:34N 41°16' W 072°07'5 5.1
2015-Apr-14 10:34N 41°21' W 072°06'0 0.0
2015-Apr-14 00:20N 41°21' W 072°06'810.2
2015-Apr-13 23:34N 41°14' W 072°09'6 6.1
2015-Apr-13 22:34N 41°09' W 072°14'8 8.1
2015-Apr-13 21:33N 41°16' W 072°08'6 5.9
2015-Apr-13 20:33N 41°21' W 072°06'9 9.1
2015-Apr-13 19:33N 41°13' W 072°11'5 4.8
2015-Apr-13 18:33N 41°09' W 072°14'8 8.1
2015-Apr-13 17:33N 41°16' W 072°08'6 5.9
2015-Apr-13 16:34N 41°21' W 072°06'9 8.8
2015-Apr-13 15:33N 41°13' W 072°10'5 5.2
2015-Apr-13 14:33N 41°09' W 072°14'8 8.3
2015-Apr-13 13:33N 41°16' W 072°08'6 5.8
2015-Apr-13 12:33N 41°21' W 072°06'8 7.9
2015-Apr-13 11:34N 41°14' W 072°09'6 6.1
2015-Apr-13 10:34N 41°09' W 072°14'0 0.0
2015-Apr-13 01:33N 41°09' W 072°14'8 8.0
2015-Apr-13 00:33N 41°15' W 072°08'6 6.1
2015-Apr-12 23:33N 41°21' W 072°06'8 8.4
2015-Apr-12 22:33N 41°14' W 072°10'6 5.6
2015-Apr-12 21:33N 41°09' W 072°14'8 7.8
2015-Apr-12 20:33N 41°15' W 072°08'6 6.2
2015-Apr-12 19:33N 41°21' W 072°06'9 8.6
2015-Apr-12 18:33N 41°13' W 072°10'5 5.5
2015-Apr-12 17:33N 41°09' W 072°14'9 8.8
2015-Apr-12 16:34N 41°16' W 072°07'5 5.3
2015-Apr-12 15:33N 41°21' W 072°06'9 8.6
2015-Apr-12 14:33N 41°13' W 072°09'6 5.5
2015-Apr-12 13:33N 41°09' W 072°14'8 8.4
2015-Apr-12 12:34N 41°16' W 072°07'6 5.7
2015-Apr-12 11:34N 41°21' W 072°06'1 0.1
2015-Apr-12 00:09N 41°21' W 072°05'812.7
2015-Apr-11 23:33N 41°14' W 072°09'6 5.9
2015-Apr-11 22:33N 41°09' W 072°14'9 9.4
2015-Apr-11 21:33N 41°16' W 072°06'5 4.9
2015-Apr-11 20:34N 41°21' W 072°05'1010.4
2015-Apr-11 19:34N 41°12' W 072°12'3 3.5
2015-Apr-11 18:33N 41°09' W 072°14'8 8.3
2015-Apr-11 17:34N 41°16' W 072°08'6 5.7
2015-Apr-11 16:33N 41°21' W 072°06'8 8.3
2015-Apr-11 15:33N 41°14' W 072°09'6 5.8
2015-Apr-11 14:33N 41°09' W 072°14'8 8.0
2015-Apr-11 13:33N 41°16' W 072°08'6 6.1
2015-Apr-11 12:33N 41°21' W 072°06'9 9.3
2015-Apr-11 11:33N 41°13' W 072°11'5 4.6
2015-Apr-11 10:33N 41°09' W 072°14'0 0.0
2015-Apr-11 00:34N 41°09' W 072°14'9 9.4
2015-Apr-10 23:33N 41°17' W 072°06'5 4.9
2015-Apr-10 22:34N 41°21' W 072°06'9 9.2
2015-Apr-10 21:33N 41°13' W 072°10'5 4.7
2015-Apr-10 20:34N 41°09' W 072°14'9 9.4
2015-Apr-10 19:33N 41°17' W 072°06'5 4.8
2015-Apr-10 18:33N 41°21' W 072°06'8 8.4
2015-Apr-10 17:33N 41°14' W 072°10'5 5.5
2015-Apr-10 16:33N 41°09' W 072°14'8 8.4
2015-Apr-10 15:33N 41°16' W 072°08'8 2.8
2015-Apr-10 12:33N 41°09' W 072°14'8 8.0
2015-Apr-10 11:33N 41°15' W 072°08'6 0.5
2015-Apr-10 00:09N 41°21' W 072°05'812.6
2015-Apr-09 23:34N 41°14' W 072°09'6 6.0
2015-Apr-09 22:33N 41°09' W 072°14'8 8.3
2015-Apr-09 21:33N 41°16' W 072°08'6 5.8
2015-Apr-09 20:34N 41°21' W 072°06'10 9.7
2015-Apr-09 19:34N 41°13' W 072°11'4 4.1
2015-Apr-09 18:34N 41°09' W 072°14'8 8.1
2015-Apr-09 17:33N 41°16' W 072°08'6 5.9
2015-Apr-09 16:33N 41°21' W 072°06'9 8.9
2015-Apr-09 15:33N 41°13' W 072°10'5 5.0
2015-Apr-09 14:33N 41°09' W 072°14'8 7.6
2015-Apr-09 13:33N 41°15' W 072°08'6 6.4
2015-Apr-09 12:33N 41°21' W 072°06'8 7.8
2015-Apr-09 11:33N 41°14' W 072°09'6 6.3
2015-Apr-09 10:33N 41°09' W 072°14'0 0.0
2015-Apr-09 00:34N 41°09' W 072°14'  

Dump ship's entire track history